Time;durP1;ratioP1;P1;durP2;ratioP2;P2;SDS_P1;SDS_P2;PMS_P1;PMS_P2;Temp;Humidity;BMP_temperature;BMP_pressure;BME280_temperature;BME280_humidity;BME280_pressure;Samples;Min_cycle;Max_cycle;Signal;HPM_P1;HPM_P2
2021/06/01 00:02:19;;;;;;;18.15;14.05;;;17.00;62.10;;;;;;5020856;28;20477;-77
2021/06/01 00:04:45;;;;;;;17.73;14.48;;;17.00;62.20;;;;;;5025520;28;20121;-77
2021/06/01 00:07:11;;;;;;;20.10;14.70;;;16.90;62.40;;;;;;5001266;28;20037;-76
2021/06/01 00:09:36;;;;;;;16.55;13.48;;;16.90;62.50;;;;;;5014631;28;20461;-79
2021/06/01 00:12:03;;;;;;;17.17;13.57;;;16.90;62.70;;;;;;5007809;28;20038;-81
2021/06/01 00:14:28;;;;;;;17.13;14.38;;;16.90;62.80;;;;;;5013261;28;20504;-78
2021/06/01 00:16:55;;;;;;;17.58;14.95;;;16.90;62.80;;;;;;5011597;28;20052;-76
2021/06/01 00:19:21;;;;;;;18.13;14.77;;;16.80;63.00;;;;;;5009897;28;20029;-78
2021/06/01 00:21:47;;;;;;;17.33;15.23;;;16.80;63.10;;;;;;5013435;28;20049;-76
2021/06/01 00:24:13;;;;;;;19.85;14.70;;;16.70;63.40;;;;;;5010710;28;20124;-77
2021/06/01 00:26:41;;;;;;;18.35;15.93;;;16.60;63.50;;;;;;5013778;28;20657;-80
2021/06/01 00:29:07;;;;;;;16.27;14.05;;;16.60;63.70;;;;;;4995474;28;20034;-80
2021/06/01 00:31:33;;;;;;;18.30;15.18;;;16.60;63.70;;;;;;5009357;28;20107;-77
2021/06/01 00:33:59;;;;;;;17.45;15.10;;;16.60;63.80;;;;;;5012118;28;20524;-77
2021/06/01 00:36:25;;;;;;;17.42;13.80;;;16.60;63.70;;;;;;5012030;28;20044;-76
2021/06/01 00:38:51;;;;;;;16.77;14.75;;;16.60;63.90;;;;;;5009655;28;20049;-77
2021/06/01 00:41:17;;;;;;;17.85;15.10;;;16.60;64.00;;;;;;5008984;28;20184;-77
2021/06/01 00:43:42;;;;;;;17.85;14.68;;;16.50;64.10;;;;;;5011569;28;20025;-79
2021/06/01 00:46:08;;;;;;;17.20;14.50;;;16.50;64.20;;;;;;5012324;28;21177;-76
2021/06/01 00:48:34;;;;;;;19.30;15.38;;;16.50;64.20;;;;;;5012953;28;20049;-79
2021/06/01 00:51:00;;;;;;;17.73;14.85;;;16.50;64.30;;;;;;4996394;28;20396;-78
2021/06/01 00:53:26;;;;;;;19.48;15.30;;;16.50;64.40;;;;;;4990476;28;20034;-80
2021/06/01 00:55:52;;;;;;;19.98;15.00;;;16.40;64.30;;;;;;4992677;28;20042;-76
2021/06/01 00:58:18;;;;;;;17.90;14.35;;;16.40;64.30;;;;;;4993562;28;21911;-79
2021/06/01 01:03:28;;;;;;;20.60;14.10;;;16.30;64.80;;;;;;5012623;28;20145;-78
2021/06/01 01:06:02;;;;;;;19.63;14.57;;;16.30;64.80;;;;;;5013189;28;20485;-79
2021/06/01 01:11:12;;;;;;;18.45;15.15;;;16.20;65.00;;;;;;5003826;28;20074;-78
2021/06/01 01:13:44;;;;;;;20.33;16.80;;;16.20;65.10;;;;;;4991163;28;20034;-79
2021/06/01 01:16:11;;;;;;;20.77;16.40;;;16.10;65.30;;;;;;4999901;28;20053;-77
2021/06/01 01:18:40;;;;;;;19.77;16.10;;;16.10;65.50;;;;;;5009428;28;20349;-77
2021/06/01 01:21:25;;;;;;;17.92;15.65;;;16.10;65.70;;;;;;5015166;28;20025;-77
2021/06/01 01:24:19;;;;;;;19.13;15.75;;;16.10;66.00;;;;;;4998366;28;20080;-76
2021/06/01 01:27:19;;;;;;;20.98;16.13;;;16.00;66.20;;;;;;4983695;28;20045;-77
2021/06/01 01:29:48;;;;;;;19.92;16.42;;;16.00;66.30;;;;;;5007113;28;20049;-78
2021/06/01 01:32:30;;;;;;;19.23;16.73;;;15.90;66.20;;;;;;5012301;28;20792;-77
2021/06/01 01:34:58;;;;;;;21.40;16.05;;;15.80;66.40;;;;;;5011544;28;20034;-77
2021/06/01 01:37:29;;;;;;;19.02;15.98;;;15.80;66.70;;;;;;5012230;28;20045;-80
2021/06/01 01:39:59;;;;;;;19.73;16.50;;;15.70;66.70;;;;;;4995090;28;20489;-77
2021/06/01 01:42:27;;;;;;;19.20;15.65;;;15.70;67.00;;;;;;5002102;28;20253;-77
2021/06/01 01:44:54;;;;;;;17.38;15.38;;;15.60;67.30;;;;;;5013755;28;20148;-78
2021/06/01 01:50:00;;;;;;;17.98;15.65;;;15.60;67.40;;;;;;5010904;28;20052;-80
2021/06/01 01:52:27;;;;;;;17.73;15.48;;;15.60;67.40;;;;;;4986570;28;20129;-79
2021/06/01 01:54:54;;;;;;;17.98;15.32;;;15.60;67.60;;;;;;4992278;28;20042;-75
2021/06/01 01:57:21;;;;;;;18.02;15.35;;;15.50;67.70;;;;;;5001386;28;20038;-80
2021/06/01 01:59:47;;;;;;;19.90;15.90;;;15.50;67.90;;;;;;5012928;28;20431;-80
2021/06/01 02:02:14;;;;;;;19.30;15.90;;;15.50;68.10;;;;;;5010617;28;20139;-78
2021/06/01 02:04:41;;;;;;;18.10;15.98;;;15.40;68.20;;;;;;5010407;28;20043;-76
2021/06/01 02:07:07;;;;;;;21.42;16.08;;;15.30;68.20;;;;;;5009634;28;20057;-77
2021/06/01 02:09:33;;;;;;;20.27;15.38;;;15.30;68.30;;;;;;5013083;28;20022;-75
2021/06/01 02:11:58;;;;;;;21.90;16.08;;;15.20;68.30;;;;;;5013322;28;20045;-76
2021/06/01 02:14:24;;;;;;;20.48;15.20;;;15.20;68.70;;;;;;5008703;28;20714;-76
2021/06/01 02:16:51;;;;;;;17.27;14.48;;;15.20;68.70;;;;;;5011455;28;21138;-80
2021/06/01 02:19:19;;;;;;;20.58;15.55;;;15.20;69.00;;;;;;5010932;28;20042;-80
2021/06/01 02:24:34;;;;;;;20.73;16.02;;;15.10;69.20;;;;;;5013480;28;20041;-77
2021/06/01 02:27:22;;;;;;;19.15;15.43;;;15.10;69.20;;;;;;4997300;28;20124;-76
2021/06/01 02:30:06;;;;;;;18.25;15.55;;;15.10;69.00;;;;;;5005793;28;20685;-78
2021/06/01 02:32:40;;;;;;;17.77;14.67;;;15.10;69.00;;;;;;5015030;28;20032;-77
2021/06/01 02:35:39;;;;;;;18.60;14.90;;;15.10;69.00;;;;;;5016976;28;20026;-78
2021/06/01 02:38:07;;;;;;;17.73;14.02;;;15.10;69.20;;;;;;5005139;28;20049;-76
2021/06/01 02:40:35;;;;;;;18.83;15.20;;;15.10;69.30;;;;;;5015982;28;20029;-77
2021/06/01 02:43:05;;;;;;;19.33;14.77;;;15.10;69.20;;;;;;5015883;28;20133;-77
2021/06/01 02:45:35;;;;;;;17.65;14.48;;;15.10;69.00;;;;;;5014578;28;20079;-77
2021/06/01 02:48:01;;;;;;;18.77;15.27;;;15.10;68.90;;;;;;5015050;28;20041;-77
2021/06/01 02:50:29;;;;;;;20.13;14.55;;;15.10;69.00;;;;;;5011222;28;20045;-77
2021/06/01 02:52:55;;;;;;;16.95;14.15;;;15.00;69.00;;;;;;5010964;28;20100;-79
2021/06/01 02:55:22;;;;;;;18.30;15.25;;;15.00;69.10;;;;;;5014776;28;20461;-76
2021/06/01 02:57:48;;;;;;;17.85;14.38;;;14.90;69.30;;;;;;5001280;28;20038;-77
2021/06/01 03:00:18;;;;;;;19.08;15.30;;;14.90;69.30;;;;;;4996211;28;20066;-76
2021/06/01 03:02:44;;;;;;;16.80;14.15;;;14.80;69.40;;;;;;5011771;28;20590;-78
2021/06/01 03:05:10;;;;;;;16.65;14.30;;;14.80;69.50;;;;;;5012815;28;20164;-77
2021/06/01 03:07:42;;;;;;;17.83;14.63;;;14.80;69.70;;;;;;4998932;28;20393;-78
2021/06/01 03:10:12;;;;;;;16.63;14.77;;;14.70;69.70;;;;;;4991673;28;20641;-77
2021/06/01 03:12:54;;;;;;;17.13;14.85;;;14.70;69.80;;;;;;4992876;28;20046;-77
2021/06/01 03:15:22;;;;;;;16.13;13.75;;;14.70;69.80;;;;;;4993695;28;20363;-79
2021/06/01 03:17:47;;;;;;;17.92;14.50;;;14.70;69.80;;;;;;5009642;28;20037;-76
2021/06/01 03:20:13;;;;;;;18.50;14.20;;;14.60;69.80;;;;;;5001051;28;20056;-75
2021/06/01 03:22:39;;;;;;;16.45;14.75;;;14.60;69.90;;;;;;5017308;28;20614;-74
2021/06/01 03:25:05;;;;;;;17.05;13.93;;;14.60;70.10;;;;;;5018859;28;20828;-71
2021/06/01 03:27:31;;;;;;;21.45;15.77;;;14.60;70.20;;;;;;5016734;28;20489;-71
2021/06/01 03:29:57;;;;;;;19.10;14.73;;;14.60;70.10;;;;;;4998730;28;20021;-71
2021/06/01 03:32:22;;;;;;;17.55;14.60;;;14.60;70.20;;;;;;4991991;28;20026;-74
2021/06/01 03:34:48;;;;;;;19.38;15.40;;;14.50;70.40;;;;;;4995572;28;20030;-71
2021/06/01 03:37:14;;;;;;;22.67;15.38;;;14.50;70.30;;;;;;5004614;28;20046;-71
2021/06/01 03:39:40;;;;;;;22.70;16.02;;;14.50;70.40;;;;;;5013418;28;20400;-71
2021/06/01 03:42:11;;;;;;;18.80;14.85;;;14.50;70.30;;;;;;5016713;28;21556;-70
2021/06/01 03:44:37;;;;;;;19.63;15.15;;;14.50;70.10;;;;;;5012160;28;20464;-72
2021/06/01 03:47:04;;;;;;;19.10;14.95;;;14.50;70.40;;;;;;5010219;28;20099;-73
2021/06/01 03:49:29;;;;;;;17.75;13.10;;;14.50;70.50;;;;;;5013002;28;20054;-71
2021/06/01 03:51:55;;;;;;;18.15;14.70;;;14.50;70.40;;;;;;5014608;28;20098;-72
2021/06/01 03:54:21;;;;;;;18.55;14.23;;;14.50;70.40;;;;;;5008029;28;21944;-72
2021/06/01 03:56:46;;;;;;;19.92;15.75;;;14.50;70.40;;;;;;5010367;28;20045;-70
2021/06/01 03:59:12;;;;;;;20.45;15.18;;;14.50;70.50;;;;;;4994898;28;20038;-71
2021/06/01 04:01:38;;;;;;;19.13;13.90;;;14.50;70.60;;;;;;4992691;28;20125;-72
2021/06/01 04:04:03;;;;;;;17.35;14.32;;;14.50;70.50;;;;;;4987925;28;20030;-71
2021/06/01 04:06:29;;;;;;;18.75;15.20;;;14.50;70.40;;;;;;4990159;28;20049;-73
2021/06/01 04:08:55;;;;;;;19.80;15.13;;;14.60;70.40;;;;;;5015049;28;20095;-71
2021/06/01 04:11:20;;;;;;;18.98;14.63;;;14.50;70.20;;;;;;5018978;28;20029;-70
2021/06/01 04:13:46;;;;;;;18.63;14.60;;;14.60;70.30;;;;;;5019828;28;20520;-72
2021/06/01 04:16:12;;;;;;;19.02;15.00;;;14.60;70.30;;;;;;5015702;28;20584;-71
2021/06/01 04:18:37;;;;;;;19.17;14.60;;;14.60;70.10;;;;;;5017628;28;20029;-72
2021/06/01 04:21:03;;;;;;;19.85;14.90;;;14.60;70.10;;;;;;5016835;28;20054;-71
2021/06/01 04:23:29;;;;;;;16.73;14.18;;;14.60;70.00;;;;;;5014662;28;20485;-73
2021/06/01 04:25:55;;;;;;;18.67;14.15;;;14.70;69.90;;;;;;5012838;28;20029;-71
2021/06/01 04:28:20;;;;;;;16.80;14.07;;;14.70;69.80;;;;;;5013374;28;20405;-71
2021/06/01 04:30:46;;;;;;;18.70;14.52;;;14.80;69.70;;;;;;5014191;28;20038;-71
2021/06/01 04:33:12;;;;;;;20.17;15.07;;;14.80;69.70;;;;;;5012992;28;20038;-73
2021/06/01 04:35:38;;;;;;;17.55;14.93;;;14.80;69.60;;;;;;5014415;28;20041;-70
2021/06/01 04:38:04;;;;;;;18.67;14.52;;;14.80;69.40;;;;;;5015059;28;20037;-71
2021/06/01 04:40:30;;;;;;;17.05;13.95;;;14.90;69.10;;;;;;5015880;28;20064;-71
2021/06/01 04:42:56;;;;;;;16.50;13.10;;;14.90;68.50;;;;;;5019618;28;20060;-70
2021/06/01 04:45:21;;;;;;;18.45;13.50;;;15.00;68.50;;;;;;5016488;28;20481;-69
2021/06/01 04:47:47;;;;;;;17.75;14.60;;;15.10;68.30;;;;;;5017342;28;20164;-71
2021/06/01 04:50:13;;;;;;;17.02;13.30;;;15.10;68.00;;;;;;5016820;28;20117;-70
2021/06/01 04:52:40;;;;;;;16.73;13.43;;;15.20;68.00;;;;;;5014436;28;20053;-73
2021/06/01 04:55:07;;;;;;;18.20;13.68;;;15.20;67.60;;;;;;5015949;28;20449;-71
2021/06/01 04:57:32;;;;;;;17.77;13.18;;;15.30;67.60;;;;;;5014490;28;20030;-71
2021/06/01 04:59:58;;;;;;;20.38;14.48;;;15.40;67.50;;;;;;4995815;28;20463;-71
2021/06/01 05:02:24;;;;;;;16.20;13.48;;;15.40;67.00;;;;;;5014370;28;20060;-71
2021/06/01 05:04:49;;;;;;;19.42;14.10;;;15.50;67.10;;;;;;5018480;28;20481;-73
2021/06/01 05:07:15;;;;;;;20.50;13.88;;;15.50;66.90;;;;;;5006356;28;20056;-73
2021/06/01 05:09:41;;;;;;;16.60;12.63;;;15.50;67.00;;;;;;5013334;28;20025;-72
2021/06/01 05:12:07;;;;;;;17.80;13.10;;;15.70;67.00;;;;;;5015904;28;20045;-72
2021/06/01 05:14:33;;;;;;;14.75;11.52;;;16.40;65.30;;;;;;5016379;28;20033;-72
2021/06/01 05:16:59;;;;;;;13.80;10.85;;;18.30;60.20;;;;;;5014101;28;20053;-71
2021/06/01 05:19:24;;;;;;;15.05;10.27;;;20.40;53.20;;;;;;5014718;28;20409;-71
2021/06/01 05:21:50;;;;;;;14.60;11.25;;;22.00;49.20;;;;;;5016261;28;20113;-71
2021/06/01 05:24:16;;;;;;;14.20;9.20;;;22.90;45.30;;;;;;5015755;28;20067;-72
2021/06/01 05:26:42;;;;;;;11.38;9.07;;;24.20;44.10;;;;;;5019216;28;20034;-70
2021/06/01 05:29:08;;;;;;;13.00;9.90;;;25.00;42.20;;;;;;5014029;28;20470;-72
2021/06/01 05:34:10;;;;;;;15.68;9.75;;;26.10;39.30;;;;;;5015222;28;20041;-70
2021/06/01 05:36:35;;;;;;;13.90;10.10;;;26.10;38.30;;;;;;5012660;28;20710;-70
2021/06/01 05:39:01;;;;;;;16.70;10.57;;;26.30;39.00;;;;;;5017831;28;20041;-72
2021/06/01 05:41:27;;;;;;;12.48;9.48;;;26.40;39.20;;;;;;5017608;28;20034;-70
2021/06/01 05:43:53;;;;;;;13.93;10.38;;;26.80;37.90;;;;;;5014224;28;20042;-71
2021/06/01 05:46:18;;;;;;;15.13;10.48;;;26.80;37.90;;;;;;5017778;28;20048;-72
2021/06/01 05:48:44;;;;;;;14.80;11.25;;;26.70;37.70;;;;;;5018764;28;20465;-72
2021/06/01 05:51:11;;;;;;;14.13;9.93;;;26.30;37.90;;;;;;4996612;28;20246;-71
2021/06/01 05:53:37;;;;;;;17.15;11.15;;;25.50;39.90;;;;;;4999242;28;20026;-70
2021/06/01 05:56:03;;;;;;;13.40;11.05;;;24.50;41.50;;;;;;5019441;28;20084;-71
2021/06/01 05:58:29;;;;;;;15.52;10.80;;;23.30;43.90;;;;;;5024240;28;20552;-71
2021/06/01 06:00:55;;;;;;;15.25;11.43;;;22.10;47.20;;;;;;5018054;28;20050;-71
2021/06/01 06:03:22;;;;;;;15.88;11.02;;;21.30;49.00;;;;;;5023319;28;20107;-73
2021/06/01 06:05:48;;;;;;;18.50;11.70;;;21.00;50.90;;;;;;5020008;28;20551;-70
2021/06/01 06:08:17;;;;;;;16.58;12.00;;;20.60;51.50;;;;;;5020704;28;20405;-71
2021/06/01 06:10:43;;;;;;;14.73;10.90;;;20.30;52.50;;;;;;5004932;28;20057;-73
2021/06/01 06:13:10;;;;;;;15.65;10.25;;;20.10;53.20;;;;;;5022513;28;20038;-70
2021/06/01 06:15:36;;;;;;;18.50;11.00;;;20.00;53.10;;;;;;5021502;28;20554;-70
2021/06/01 06:18:03;;;;;;;14.75;9.95;;;20.00;53.60;;;;;;5021055;28;20124;-72
2021/06/01 06:20:30;;;;;;;12.50;9.40;;;20.10;52.10;;;;;;5019325;28;20476;-70
2021/06/01 06:22:56;;;;;;;14.73;10.93;;;20.10;52.50;;;;;;5019459;28;20030;-71
2021/06/01 06:25:21;;;;;;;12.45;9.63;;;20.30;53.30;;;;;;5020635;28;20040;-68
2021/06/01 06:27:47;;;;;;;11.98;10.00;;;20.30;52.30;;;;;;5016911;28;20030;-68
2021/06/01 06:30:13;;;;;;;13.35;9.95;;;20.40;51.60;;;;;;4999359;28;20042;-70
2021/06/01 06:32:39;;;;;;;13.60;9.75;;;20.50;51.70;;;;;;5014023;28;20109;-71
2021/06/01 06:35:07;;;;;;;11.75;8.98;;;20.60;51.10;;;;;;5016980;28;20129;-68
2021/06/01 06:37:33;;;;;;;14.90;9.00;;;20.60;51.80;;;;;;5020596;28;20038;-69
2021/06/01 06:39:58;;;;;;;11.65;7.85;;;20.80;51.50;;;;;;5020553;28;20613;-69
2021/06/01 06:42:24;;;;;;;10.82;7.22;;;20.90;49.10;;;;;;5021432;28;20041;-69
2021/06/01 06:44:52;;;;;;;9.15;6.72;;;21.00;49.60;;;;;;5022442;28;20107;-68
2021/06/01 06:47:39;;;;;;;10.57;7.20;;;21.10;50.00;;;;;;5020401;28;20029;-69
2021/06/01 06:50:05;;;;;;;9.85;6.75;;;21.10;48.10;;;;;;5020342;28;20033;-68
2021/06/01 06:52:31;;;;;;;11.48;7.00;;;21.30;48.90;;;;;;5019786;28;20107;-70
2021/06/01 06:54:57;;;;;;;11.98;6.90;;;21.40;47.40;;;;;;5020577;28;20725;-68
2021/06/01 06:57:22;;;;;;;10.32;6.70;;;21.60;46.60;;;;;;5023907;28;20096;-68
2021/06/01 06:59:48;;;;;;;8.57;5.57;;;21.70;47.20;;;;;;5000139;28;20069;-72
2021/06/01 07:02:15;;;;;;;9.52;5.78;;;21.90;46.80;;;;;;4997880;28;20450;-70
2021/06/01 07:04:40;;;;;;;9.05;4.97;;;22.10;45.60;;;;;;4997267;28;20099;-70
2021/06/01 07:07:06;;;;;;;8.68;5.03;;;22.10;44.40;;;;;;5001485;28;20048;-69
2021/06/01 07:09:32;;;;;;;10.15;4.40;;;22.20;45.60;;;;;;5007846;28;20034;-71
2021/06/01 07:11:57;;;;;;;9.07;4.82;;;22.20;43.10;;;;;;5008622;28;20040;-70
2021/06/01 07:14:30;;;;;;;8.25;4.82;;;22.30;43.20;;;;;;5011009;28;20037;-70
2021/06/01 07:16:56;;;;;;;7.43;4.82;;;22.30;42.60;;;;;;5008539;28;20112;-72
2021/06/01 07:19:22;;;;;;;8.48;4.50;;;22.40;43.50;;;;;;5019178;28;20465;-69
2021/06/01 07:21:48;;;;;;;8.75;4.55;;;22.50;43.50;;;;;;5021014;28;20037;-70
2021/06/01 07:24:14;;;;;;;6.70;4.20;;;22.60;42.30;;;;;;5018232;28;20085;-69
2021/06/01 07:26:39;;;;;;;7.63;4.15;;;22.70;41.90;;;;;;5001975;28;20997;-69
2021/06/01 07:29:05;;;;;;;7.80;4.28;;;22.80;41.80;;;;;;5020138;28;20458;-70
2021/06/01 07:31:31;;;;;;;8.38;4.40;;;23.00;43.20;;;;;;5017925;28;20049;-71
2021/06/01 07:33:57;;;;;;;6.97;3.95;;;23.00;41.10;;;;;;5019387;28;20451;-69
2021/06/01 07:36:22;;;;;;;8.02;3.88;;;23.20;41.50;;;;;;5019834;28;20411;-70
2021/06/01 07:38:48;;;;;;;10.18;4.13;;;23.50;41.10;;;;;;5018815;28;20136;-69
2021/06/01 07:41:13;;;;;;;8.57;4.25;;;23.50;41.50;;;;;;5019547;28;20477;-68
2021/06/01 07:43:39;;;;;;;8.55;4.00;;;23.50;40.60;;;;;;5020774;28;20046;-70
2021/06/01 07:46:06;;;;;;;8.43;4.15;;;23.40;40.30;;;;;;5018476;28;20053;-70
2021/06/01 07:48:35;;;;;;;7.90;4.30;;;23.40;41.30;;;;;;5016264;28;20044;-73
2021/06/01 07:51:02;;;;;;;6.43;3.90;;;23.50;40.20;;;;;;5018179;28;20034;-70
2021/06/01 07:53:28;;;;;;;7.20;3.58;;;23.70;40.10;;;;;;5020883;28;20034;-69
2021/06/01 07:55:53;;;;;;;6.68;3.60;;;23.80;40.10;;;;;;5016852;28;20046;-70
2021/06/01 07:58:19;;;;;;;8.43;3.67;;;23.80;38.30;;;;;;5017870;28;20041;-72
2021/06/01 08:00:46;;;;;;;7.20;3.28;;;23.80;38.70;;;;;;5011137;28;20050;-69
2021/06/01 08:03:15;;;;;;;7.50;3.55;;;23.80;37.80;;;;;;4996759;28;20053;-70
2021/06/01 08:05:41;;;;;;;6.80;4.10;;;24.00;37.60;;;;;;4997496;28;20552;-70
2021/06/01 08:08:06;;;;;;;6.75;3.67;;;24.00;37.60;;;;;;4998533;28;20298;-71
2021/06/01 08:10:32;;;;;;;11.23;3.30;;;24.10;37.90;;;;;;5011986;28;20123;-72
2021/06/01 08:12:58;;;;;;;8.23;3.72;;;24.20;37.60;;;;;;5021351;28;20083;-70
2021/06/01 08:15:25;;;;;;;6.47;3.25;;;24.40;37.20;;;;;;5016152;28;20083;-71
2021/06/01 08:17:54;;;;;;;7.20;3.00;;;24.50;36.50;;;;;;5018669;28;20768;-72
2021/06/01 08:21:35;;;;;;;7.35;3.42;;;24.50;36.80;;;;;;5015225;28;20124;-70
2021/06/01 08:23:14;;;;;;;6.18;3.33;;;24.60;37.70;;;;;;5008728;28;20026;-71
2021/06/01 08:25:40;;;;;;;6.82;3.35;;;24.70;36.70;;;;;;5018432;28;20166;-72
2021/06/01 08:28:06;;;;;;;8.10;3.30;;;24.90;36.00;;;;;;5017187;28;20710;-72
2021/06/01 08:30:31;;;;;;;7.25;3.40;;;24.90;34.80;;;;;;5019323;28;20052;-72
2021/06/01 08:32:58;;;;;;;6.05;3.00;;;24.90;34.80;;;;;;5018389;28;20124;-73
2021/06/01 08:35:23;;;;;;;6.47;3.28;;;25.10;35.70;;;;;;5018933;28;20485;-71
2021/06/01 08:37:49;;;;;;;5.80;3.30;;;25.10;35.80;;;;;;5017564;28;20041;-71
2021/06/01 08:40:15;;;;;;;5.25;3.10;;;25.10;34.10;;;;;;5019035;28;20025;-72
2021/06/01 08:42:41;;;;;;;6.20;3.10;;;25.20;33.60;;;;;;5019722;28;20030;-71
2021/06/01 08:45:11;;;;;;;5.85;3.53;;;25.30;34.80;;;;;;5018711;28;20045;-72
2021/06/01 08:47:39;;;;;;;5.25;2.92;;;25.50;34.30;;;;;;5013983;28;20113;-71
2021/06/01 08:50:07;;;;;;;5.65;3.03;;;25.50;34.20;;;;;;5012812;28;20038;-72
2021/06/01 08:52:34;;;;;;;7.40;3.20;;;25.60;33.20;;;;;;4995786;28;20061;-71
2021/06/01 08:55:00;;;;;;;6.18;3.40;;;25.60;33.60;;;;;;5013575;28;20034;-71
2021/06/01 08:57:26;;;;;;;5.72;2.60;;;25.30;32.40;;;;;;4999391;28;20046;-70
2021/06/01 08:59:52;;;;;;;5.05;2.80;;;25.50;33.00;;;;;;5002469;28;20049;-70
2021/06/01 09:02:22;;;;;;;5.00;2.90;;;25.60;32.30;;;;;;5014740;28;20045;-71
2021/06/01 09:04:59;;;;;;;6.38;2.85;;;25.30;31.10;;;;;;5017053;28;20053;-72
2021/06/01 09:07:51;;;;;;;7.13;3.00;;;25.10;32.40;;;;;;5014205;28;20052;-70
2021/06/01 09:13:23;;;;;;;6.05;3.03;;;25.40;31.80;;;;;;5001675;28;21414;-70
2021/06/01 09:21:42;;;;;;;8.63;3.08;;;25.70;31.80;;;;;;5011630;28;20091;-69
2021/06/01 09:24:08;;;;;;;5.75;2.97;;;25.70;32.00;;;;;;5016537;28;20044;-68
2021/06/01 09:27:00;;;;;;;5.60;3.45;;;25.80;32.20;;;;;;5017727;28;20029;-70
2021/06/01 09:29:28;;;;;;;5.43;2.88;;;25.70;30.60;;;;;;4998874;28;20038;-69
2021/06/01 09:32:14;;;;;;;5.18;3.15;;;25.40;31.70;;;;;;5023860;28;20137;-69
2021/06/01 09:34:49;;;;;;;4.40;2.97;;;25.40;32.10;;;;;;5006066;28;20470;-70
2021/06/01 09:37:29;;;;;;;5.78;3.13;;;25.60;32.10;;;;;;5012413;28;20045;-72
2021/06/01 09:40:17;;;;;;;5.22;3.05;;;25.60;31.20;;;;;;5021246;28;20124;-71
2021/06/01 09:42:47;;;;;;;5.32;2.80;;;25.60;32.60;;;;;;5006301;28;20349;-69
2021/06/01 09:45:19;;;;;;;6.45;3.00;;;26.10;32.50;;;;;;5020175;28;20038;-72
2021/06/01 09:47:47;;;;;;;5.65;2.75;;;26.00;31.70;;;;;;5019361;28;20069;-69
2021/06/01 09:50:25;;;;;;;5.57;2.95;;;26.10;31.30;;;;;;5003439;28;20033;-71
2021/06/01 09:52:54;;;;;;;5.18;2.58;;;26.20;30.20;;;;;;5020707;28;20038;-71
2021/06/01 09:55:31;;;;;;;5.53;2.85;;;26.30;31.20;;;;;;5015440;28;20037;-70
2021/06/01 09:57:58;;;;;;;6.32;3.10;;;26.30;30.80;;;;;;5003171;28;20553;-72
2021/06/01 10:00:26;;;;;;;5.55;2.60;;;26.30;31.70;;;;;;5005825;28;20104;-73
2021/06/01 10:03:01;;;;;;;8.85;3.10;;;26.50;30.50;;;;;;5022190;28;20368;-71
2021/06/01 10:05:35;;;;;;;6.18;3.05;;;26.10;29.90;;;;;;5002273;28;20041;-70
2021/06/01 10:08:21;;;;;;;7.53;2.80;;;26.10;29.80;;;;;;4998799;28;20438;-72
2021/06/01 10:10:59;;;;;;;5.05;3.10;;;26.10;29.70;;;;;;5018758;28;20049;-72
2021/06/01 10:13:27;;;;;;;7.88;2.97;;;26.20;29.90;;;;;;5019373;28;20087;-71
2021/06/01 10:15:56;;;;;;;6.22;3.15;;;26.40;29.90;;;;;;5019587;28;20857;-71
2021/06/01 10:18:23;;;;;;;6.53;3.00;;;26.40;30.20;;;;;;5018086;28;20041;-71
2021/06/01 10:20:51;;;;;;;6.60;2.85;;;26.50;30.40;;;;;;5025879;28;20053;-72
2021/06/01 10:23:27;;;;;;;5.32;2.95;;;26.50;29.60;;;;;;5026787;28;20056;-71
2021/06/01 10:25:56;;;;;;;7.25;2.95;;;26.60;30.20;;;;;;5020235;28;20033;-71
2021/06/01 10:31:19;;;;;;;5.40;2.55;;;26.70;29.70;;;;;;5008787;28;20567;-72
2021/06/01 10:33:51;;;;;;;6.20;2.70;;;26.80;29.50;;;;;;5017400;28;20564;-72
2021/06/01 10:52:25;;;;;;;5.75;3.10;;;27.20;29.50;;;;;;5021140;28;20450;-71
2021/06/01 10:54:55;;;;;;;4.60;2.90;;;27.40;29.80;;;;;;5020928;28;20435;-71
2021/06/01 10:57:21;;;;;;;3.97;2.80;;;26.90;28.80;;;;;;5020055;28;20558;-70
2021/06/01 11:02:32;;;;;;;4.53;2.35;;;27.50;28.80;;;;;;5010486;28;20436;-71
2021/06/01 11:05:11;;;;;;;7.75;3.38;;;27.10;28.70;;;;;;5017774;28;20041;-70
2021/06/01 11:07:52;;;;;;;7.55;2.90;;;27.00;29.50;;;;;;5019255;28;20045;-71
2021/06/01 11:10:39;;;;;;;7.53;2.55;;;27.40;28.80;;;;;;5019905;28;20046;-69
2021/06/01 11:13:29;;;;;;;6.53;3.05;;;27.50;29.10;;;;;;5016960;28;20041;-69
2021/06/01 11:15:56;;;;;;;5.28;3.10;;;27.60;27.90;;;;;;5016903;28;20056;-69
2021/06/01 11:18:42;;;;;;;4.47;2.65;;;27.40;28.60;;;;;;5020091;28;20045;-71
2021/06/01 11:35:24;;;;;;;6.22;2.88;;;27.40;28.00;;;;;;5017047;28;20064;-70
2021/06/01 11:38:02;;;;;;;4.65;2.40;;;27.50;27.60;;;;;;5009069;28;20486;-70
2021/06/01 11:43:12;;;;;;;3.58;2.40;;;27.70;27.90;;;;;;4998937;28;20045;-70
2021/06/01 11:45:42;;;;;;;4.45;2.53;;;27.90;27.20;;;;;;5013757;28;20030;-70
2021/06/01 11:51:16;;;;;;;8.10;3.05;;;27.30;27.60;;;;;;5007645;28;20058;-73
2021/06/01 11:53:47;;;;;;;6.22;2.58;;;27.20;27.80;;;;;;5011997;28;20045;-70
2021/06/01 11:56:14;;;;;;;6.03;2.38;;;27.60;28.10;;;;;;5014794;28;20602;-70
2021/06/01 12:04:57;;;;;;;4.97;2.80;;;27.90;27.90;;;;;;4988014;28;20058;-70
2021/06/01 12:18:45;;;;;;;9.30;2.85;;;27.80;28.90;;;;;;4999569;28;20041;-71
2021/06/01 12:21:20;;;;;;;6.22;3.03;;;27.90;27.50;;;;;;5000851;28;20038;-69
2021/06/01 12:24:02;;;;;;;6.65;2.80;;;28.00;27.30;;;;;;5006828;28;20568;-70
2021/06/01 12:32:12;;;;;;;5.78;3.35;;;28.30;28.50;;;;;;4999784;28;20366;-69
2021/06/01 12:45:48;;;;;;;5.78;2.67;;;28.00;28.70;;;;;;5002430;28;20831;-71
2021/06/01 13:51:27;;;;;;;6.32;2.83;;;28.70;26.20;;;;;;5015127;28;20037;-70
2021/06/01 13:56:37;;;;;;;5.70;2.60;;;28.80;27.80;;;;;;5010354;28;20056;-71
2021/06/01 13:59:14;;;;;;;5.78;2.83;;;29.00;26.60;;;;;;5001672;28;20100;-71
2021/06/01 14:29:38;;;;;;;5.63;2.80;;;28.50;28.00;;;;;;5022228;28;20048;-71
2021/06/01 15:48:09;;;;;;;4.13;2.33;;;28.00;26.90;;;;;;5018997;28;20072;-73
2021/06/01 15:50:41;;;;;;;3.65;2.20;;;28.00;26.40;;;;;;5019308;28;20048;-72
2021/06/01 15:53:36;;;;;;;4.93;2.85;;;28.10;26.70;;;;;;5027074;28;20056;-71
2021/06/01 16:21:21;;;;;;;3.40;2.10;;;28.10;26.60;;;;;;5002753;28;20406;-72
2021/06/01 17:04:51;;;;;;;5.50;2.35;;;28.20;27.70;;;;;;5017116;28;20049;-71
2021/06/01 17:13:03;;;;;;;4.63;2.38;;;28.10;28.50;;;;;;5020316;28;21312;-72
2021/06/01 17:15:29;;;;;;;4.65;2.30;;;28.10;27.70;;;;;;5009981;28;20037;-72
2021/06/01 17:18:03;;;;;;;6.03;3.25;;;28.20;28.00;;;;;;5009810;28;20046;-74
2021/06/01 17:36:54;;;;;;;6.55;2.65;;;28.10;28.50;;;;;;5011171;28;20466;-72
2021/06/01 17:39:21;;;;;;;5.38;2.50;;;28.00;28.60;;;;;;5019373;28;20408;-71
2021/06/01 17:41:49;;;;;;;5.60;2.63;;;28.10;28.00;;;;;;5024136;28;20358;-71
2021/06/01 17:44:19;;;;;;;5.20;2.55;;;28.10;27.80;;;;;;5024241;28;20421;-71
2021/06/01 17:46:46;;;;;;;3.58;2.20;;;28.10;28.00;;;;;;5026412;28;20041;-72
2021/06/01 17:49:14;;;;;;;3.33;2.33;;;27.80;29.00;;;;;;5018377;28;20630;-72
2021/06/01 17:51:43;;;;;;;4.03;2.28;;;27.60;29.30;;;;;;5020543;28;20041;-73
2021/06/01 17:54:09;;;;;;;4.80;2.58;;;27.50;28.80;;;;;;5024439;28;20060;-72
2021/06/01 17:56:39;;;;;;;5.57;2.40;;;27.30;29.10;;;;;;5022097;28;20489;-72
2021/06/01 17:59:04;;;;;;;3.92;2.25;;;27.30;29.60;;;;;;4998302;28;20099;-74
2021/06/01 18:01:31;;;;;;;4.68;2.38;;;27.20;29.10;;;;;;5019867;28;20132;-72
2021/06/01 18:04:00;;;;;;;5.63;2.80;;;27.20;30.20;;;;;;5030405;28;20044;-72
2021/06/01 18:06:35;;;;;;;5.30;2.55;;;27.20;30.00;;;;;;5030934;28;20029;-72
2021/06/01 18:37:09;;;;;;;7.18;2.40;;;27.30;31.70;;;;;;5016320;28;20056;-74
2021/06/01 19:01:46;;;;;;;6.03;3.20;;;27.10;32.40;;;;;;4993644;28;20416;-73
2021/06/01 19:50:19;;;;;;;9.63;3.90;;;23.60;39.10;;;;;;5015349;28;20325;-73
2021/06/01 19:52:47;;;;;;;5.75;3.35;;;23.50;39.40;;;;;;5016022;28;20038;-73
2021/06/01 19:55:14;;;;;;;7.22;3.50;;;23.40;40.10;;;;;;5019434;28;20025;-71
2021/06/01 19:57:40;;;;;;;6.55;3.70;;;23.30;39.90;;;;;;5014571;28;20115;-73
2021/06/01 20:00:09;;;;;;;7.63;3.83;;;23.20;40.00;;;;;;5013399;28;20465;-72
2021/06/01 20:02:36;;;;;;;6.15;3.45;;;23.10;40.30;;;;;;5019420;28;20481;-74
2021/06/01 20:05:13;;;;;;;5.57;3.30;;;23.00;40.60;;;;;;5017545;28;20045;-73
2021/06/01 20:07:39;;;;;;;8.18;3.60;;;22.90;41.10;;;;;;5020174;28;20369;-72
2021/06/01 20:10:09;;;;;;;7.55;3.55;;;22.90;41.10;;;;;;5013596;28;20030;-73
2021/06/01 20:12:34;;;;;;;5.97;3.35;;;22.70;41.50;;;;;;5018155;28;20026;-72
2021/06/01 20:15:00;;;;;;;7.68;3.92;;;22.70;41.50;;;;;;5026334;28;20491;-72
2021/06/01 20:17:36;;;;;;;6.82;4.25;;;22.60;41.90;;;;;;5010726;28;20046;-71